Time,TemperatureF,DewpointF,PressureIn,WindDirection,WindDirectionDegrees,WindSpeedMPH,WindSpeedGustMPH,Humidity,HourlyPrecipIn,Conditions,Clouds,dailyrainin,SoftwareType,DateUTC
2013-12-02 00:04:00,42.7,39.4,30.25,NW,325,0.0,2.0,88,0.00,,,0.00,WUHU216DAVISVP2,2013-12-02 08:04:00,
2013-12-02 00:09:00,42.7,39.4,30.25,NW,325,0.0,0.0,88,0.00,,,0.00,WUHU216DAVISVP2,2013-12-02 08:09:00,
2013-12-02 00:14:00,42.7,39.6,30.25,NW,325,0.0,2.0,89,0.00,,,0.00,WUHU216DAVISVP2,2013-12-02 08:14:00,
2013-12-02 00:19:00,42.8,39.7,30.25,NW,325,0.0,3.0,89,0.00,,,0.00,WUHU216DAVISVP2,2013-12-02 08:19:00,
2013-12-02 00:24:00,42.7,39.7,30.25,NW,325,0.0,3.0,89,0.00,,,0.00,WUHU216DAVISVP2,2013-12-02 08:24:00,
2013-12-02 00:29:00,42.7,39.7,30.24,NW,325,0.0,1.0,89,0.00,,,0.00,WUHU216DAVISVP2,2013-12-02 08:29:00,
2013-12-02 00:34:00,42.8,40.0,30.25,NW,325,0.0,0.0,90,0.00,,,0.00,WUHU216DAVISVP2,2013-12-02 08:34:00,
2013-12-02 00:39:00,42.8,40.0,30.24,NW,325,0.0,0.0,90,0.00,,,0.00,WUHU216DAVISVP2,2013-12-02 08:39:00,
2013-12-02 00:44:00,42.8,40.0,30.24,NW,325,0.0,0.0,90,0.00,,,0.00,WUHU216DAVISVP2,2013-12-02 08:44:00,
2013-12-02 00:49:00,42.9,40.2,30.24,NW,325,0.0,2.0,90,0.00,,,0.00,WUHU216DAVISVP2,2013-12-02 08:49:00,
2013-12-02 00:54:00,42.9,40.5,30.24,NW,325,0.0,2.0,91,0.00,,,0.00,WUHU216DAVISVP2,2013-12-02 08:54:00,
2013-12-02 00:59:00,42.9,40.4,30.24,NW,325,0.0,2.0,91,0.00,,,0.00,WUHU216DAVISVP2,2013-12-02 08:59:00,
2013-12-02 01:04:00,42.8,40.3,30.24,NW,325,0.0,0.0,91,0.00,,,0.00,WUHU216DAVISVP2,2013-12-02 09:04:00,
2013-12-02 01:09:00,42.8,40.0,30.24,NW,325,0.0,0.0,90,0.00,,,0.00,WUHU216DAVISVP2,2013-12-02 09:09:00,
2013-12-02 01:14:00,42.7,39.9,30.24,NW,325,0.0,0.0,90,0.00,,,0.00,WUHU216DAVISVP2,2013-12-02 09:14:00,
2013-12-02 01:19:00,42.5,39.8,30.24,NW,325,0.0,0.0,90,0.00,,,0.00,WUHU216DAVISVP2,2013-12-02 09:19:00,
2013-12-02 01:24:00,42.4,39.7,30.24,NW,325,0.0,0.0,90,0.00,,,0.00,WUHU216DAVISVP2,2013-12-02 09:24:00,
2013-12-02 01:29:00,42.3,39.3,30.24,NW,325,0.0,0.0,89,0.00,,,0.00,WUHU216DAVISVP2,2013-12-02 09:29:00,
2013-12-02 01:34:00,42.0,39.0,30.24,NW,325,0.0,0.0,89,0.00,,,0.00,WUHU216DAVISVP2,2013-12-02 09:34:00,
2013-12-02 01:39:00,41.7,38.7,30.24,NW,325,0.0,0.0,89,0.00,,,0.00,WUHU216DAVISVP2,2013-12-02 09:39:00,
2013-12-02 01:44:00,41.5,38.5,30.24,NW,325,0.0,0.0,89,0.00,,,0.00,WUHU216DAVISVP2,2013-12-02 09:44:00,
2013-12-02 01:49:00,41.4,38.4,30.24,NW,325,0.0,0.0,89,0.00,,,0.00,WUHU216DAVISVP2,2013-12-02 09:49:00,
2013-12-02 01:54:00,41.3,38.3,30.24,NW,325,0.0,0.0,89,0.00,,,0.00,WUHU216DAVISVP2,2013-12-02 09:54:00,
2013-12-02 01:59:00,41.2,38.2,30.23,NW,325,0.0,0.0,89,0.00,,,0.00,WUHU216DAVISVP2,2013-12-02 09:59:00,
2013-12-02 02:04:00,41.1,38.1,30.23,NW,325,0.0,0.0,89,0.00,,,0.00,WUHU216DAVISVP2,2013-12-02 10:04:00,
2013-12-02 02:09:00,40.9,37.9,30.23,NW,325,0.0,0.0,89,0.00,,,0.00,WUHU216DAVISVP2,2013-12-02 10:09:00,
2013-12-02 02:14:00,40.8,37.8,30.23,NW,325,0.0,0.0,89,0.00,,,0.00,WUHU216DAVISVP2,2013-12-02 10:14:00,
2013-12-02 02:19:00,40.7,37.7,30.22,NW,325,0.0,0.0,89,0.00,,,0.00,WUHU216DAVISVP2,2013-12-02 10:19:00,
2013-12-02 02:24:00,40.6,37.6,30.23,NW,325,0.0,0.0,89,0.00,,,0.00,WUHU216DAVISVP2,2013-12-02 10:24:00,
2013-12-02 02:29:00,40.5,37.5,30.22,NW,325,0.0,0.0,89,0.00,,,0.00,WUHU216DAVISVP2,2013-12-02 10:29:00,
2013-12-02 02:34:00,40.4,37.4,30.22,NW,325,0.0,0.0,89,0.00,,,0.00,WUHU216DAVISVP2,2013-12-02 10:34:00,
2013-12-02 02:39:00,40.3,37.6,30.22,NW,325,0.0,0.0,90,0.00,,,0.00,WUHU216DAVISVP2,2013-12-02 10:39:00,
2013-12-02 02:44:00,40.3,37.6,30.21,NW,325,0.0,0.0,90,0.00,,,0.00,WUHU216DAVISVP2,2013-12-02 10:44:00,
2013-12-02 02:49:00,40.2,37.5,30.21,NW,325,0.0,1.0,90,0.00,,,0.00,WUHU216DAVISVP2,2013-12-02 10:49:00,
2013-12-02 02:54:00,40.2,37.5,30.21,NW,325,0.0,1.0,90,0.00,,,0.00,WUHU216DAVISVP2,2013-12-02 10:54:00,
2013-12-02 02:59:00,40.1,37.4,30.20,NW,325,0.0,0.0,90,0.00,,,0.00,WUHU216DAVISVP2,2013-12-02 10:59:00,
2013-12-02 03:04:00,40.0,37.3,30.20,NW,325,0.0,1.0,90,0.00,,,0.00,WUHU216DAVISVP2,2013-12-02 11:04:00,
2013-12-02 03:09:00,39.8,37.1,30.20,NW,325,0.0,1.0,90,0.00,,,0.00,WUHU216DAVISVP2,2013-12-02 11:09:00,
2013-12-02 03:14:00,39.7,37.0,30.19,NW,325,0.0,2.0,90,0.00,,,0.00,WUHU216DAVISVP2,2013-12-02 11:14:00,
2013-12-02 03:19:00,39.5,36.8,30.19,NW,325,0.0,2.0,90,0.00,,,0.00,WUHU216DAVISVP2,2013-12-02 11:19:00,
2013-12-02 03:24:00,39.5,36.8,30.19,NW,325,0.0,2.0,90,0.00,,,0.00,WUHU216DAVISVP2,2013-12-02 11:24:00,
2013-12-02 03:29:00,39.4,36.7,30.18,NW,325,0.0,2.0,90,0.00,,,0.00,WUHU216DAVISVP2,2013-12-02 11:29:00,
2013-12-02 03:34:00,39.3,36.6,30.18,NW,325,0.0,0.0,90,0.00,,,0.00,WUHU216DAVISVP2,2013-12-02 11:34:00,
2013-12-02 03:39:00,39.3,36.6,30.18,NW,325,0.0,0.0,90,0.00,,,0.00,WUHU216DAVISVP2,2013-12-02 11:39:00,
2013-12-02 03:44:00,39.3,36.6,30.18,NW,325,0.0,0.0,90,0.00,,,0.00,WUHU216DAVISVP2,2013-12-02 11:44:00,
2013-12-02 03:49:00,39.2,36.5,30.18,NW,325,0.0,0.0,90,0.00,,,0.00,WUHU216DAVISVP2,2013-12-02 11:49:00,
2013-12-02 03:54:00,39.1,36.4,30.18,NW,325,0.0,1.0,90,0.00,,,0.00,WUHU216DAVISVP2,2013-12-02 11:54:00,
2013-12-02 03:59:00,39.1,36.4,30.18,NW,325,0.0,1.0,90,0.00,,,0.00,WUHU216DAVISVP2,2013-12-02 11:59:00,
2013-12-02 04:04:00,38.9,36.2,30.18,NW,325,0.0,0.0,90,0.00,,,0.00,WUHU216DAVISVP2,2013-12-02 12:04:00,
2013-12-02 04:09:00,38.9,36.5,30.18,NW,325,0.0,0.0,91,0.00,,,0.00,WUHU216DAVISVP2,2013-12-02 12:09:00,
2013-12-02 04:14:00,38.8,36.4,30.18,NW,325,0.0,0.0,91,0.00,,,0.00,WUHU216DAVISVP2,2013-12-02 12:14:00,
2013-12-02 04:19:00,38.8,36.4,30.18,NW,325,0.0,0.0,91,0.00,,,0.00,WUHU216DAVISVP2,2013-12-02 12:19:00,
2013-12-02 04:24:00,38.8,36.4,30.18,NW,325,0.0,0.0,91,0.00,,,0.00,WUHU216DAVISVP2,2013-12-02 12:24:00,
2013-12-02 04:29:00,38.7,36.3,30.18,NW,325,0.0,0.0,91,0.00,,,0.00,WUHU216DAVISVP2,2013-12-02 12:29:00,
2013-12-02 04:34:00,38.6,36.2,30.18,NW,325,0.0,2.0,91,0.00,,,0.00,WUHU216DAVISVP2,2013-12-02 12:34:00,
2013-12-02 04:39:00,38.6,36.2,30.18,NW,325,0.0,2.0,91,0.00,,,0.00,WUHU216DAVISVP2,2013-12-02 12:39:00,
2013-12-02 04:44:00,38.6,36.4,30.18,NW,325,0.0,0.0,92,0.00,,,0.00,WUHU216DAVISVP2,2013-12-02 12:44:00,
2013-12-02 04:49:00,38.6,36.2,30.18,NW,325,0.0,0.0,91,0.00,,,0.00,WUHU216DAVISVP2,2013-12-02 12:49:00,
2013-12-02 04:54:00,38.6,36.4,30.19,NW,325,0.0,0.0,92,0.00,,,0.00,WUHU216DAVISVP2,2013-12-02 12:54:00,
2013-12-02 04:59:00,38.6,36.4,30.19,NW,325,0.0,0.0,92,0.00,,,0.00,WUHU216DAVISVP2,2013-12-02 12:59:00,
2013-12-02 05:04:00,38.5,36.3,30.19,NW,325,0.0,0.0,92,0.00,,,0.00,WUHU216DAVISVP2,2013-12-02 13:04:00,
2013-12-02 05:09:00,38.4,36.0,30.19,NW,325,0.0,0.0,91,0.00,,,0.00,WUHU216DAVISVP2,2013-12-02 13:09:00,
2013-12-02 05:14:00,38.2,35.8,30.19,NW,325,0.0,0.0,91,0.00,,,0.00,WUHU216DAVISVP2,2013-12-02 13:14:00,
2013-12-02 05:19:00,38.1,35.7,30.19,NW,325,0.0,0.0,91,0.00,,,0.00,WUHU216DAVISVP2,2013-12-02 13:19:00,
2013-12-02 05:24:00,38.0,35.6,30.19,NW,325,0.0,0.0,91,0.00,,,0.00,WUHU216DAVISVP2,2013-12-02 13:24:00,
2013-12-02 05:29:00,37.9,35.5,30.19,NW,325,0.0,1.0,91,0.00,,,0.00,WUHU216DAVISVP2,2013-12-02 13:29:00,
2013-12-02 05:34:00,37.8,35.4,30.19,NW,325,0.0,1.0,91,0.00,,,0.00,WUHU216DAVISVP2,2013-12-02 13:34:00,
2013-12-02 05:39:00,37.8,35.6,30.19,NW,325,0.0,0.0,92,0.00,,,0.00,WUHU216DAVISVP2,2013-12-02 13:39:00,
2013-12-02 05:44:00,37.7,35.5,30.20,NW,325,0.0,0.0,92,0.00,,,0.00,WUHU216DAVISVP2,2013-12-02 13:44:00,
2013-12-02 05:49:00,37.6,35.4,30.20,NW,325,0.0,0.0,92,0.00,,,0.00,WUHU216DAVISVP2,2013-12-02 13:49:00,
2013-12-02 05:54:00,37.6,35.4,30.19,NW,325,0.0,2.0,92,0.00,,,0.00,WUHU216DAVISVP2,2013-12-02 13:54:00,
2013-12-02 05:59:00,37.7,35.5,30.20,NW,325,0.0,2.0,92,0.00,,,0.00,WUHU216DAVISVP2,2013-12-02 13:59:00,
2013-12-02 06:04:00,37.7,35.5,30.20,NW,325,0.0,2.0,92,0.00,,,0.00,WUHU216DAVISVP2,2013-12-02 14:04:00,
2013-12-02 06:09:00,37.9,36.0,30.21,NW,325,0.0,2.0,93,0.00,,,0.00,WUHU216DAVISVP2,2013-12-02 14:09:00,
2013-12-02 06:14:00,38.1,36.2,30.22,NW,325,0.0,2.0,93,0.00,,,0.00,WUHU216DAVISVP2,2013-12-02 14:14:00,
2013-12-02 06:19:00,38.2,36.3,30.22,NW,325,0.0,0.0,93,0.00,,,0.00,WUHU216DAVISVP2,2013-12-02 14:19:00,
2013-12-02 06:24:00,38.2,36.3,30.22,NW,325,0.0,0.0,93,0.00,,,0.00,WUHU216DAVISVP2,2013-12-02 14:24:00,
2013-12-02 06:29:00,38.1,36.2,30.22,NW,325,1.0,1.0,93,0.00,,,0.00,WUHU216DAVISVP2,2013-12-02 14:29:00,
2013-12-02 06:34:00,38.0,36.1,30.22,NW,325,0.0,4.0,93,0.00,,,0.00,WUHU216DAVISVP2,2013-12-02 14:34:00,
2013-12-02 06:39:00,37.9,36.0,30.22,NW,325,0.0,4.0,93,0.00,,,0.00,WUHU216DAVISVP2,2013-12-02 14:39:00,
2013-12-02 06:44:00,37.8,36.2,30.22,NW,325,0.0,4.0,94,0.00,,,0.00,WUHU216DAVISVP2,2013-12-02 14:44:00,
2013-12-02 06:49:00,37.7,36.1,30.22,NW,325,0.0,0.0,94,0.00,,,0.00,WUHU216DAVISVP2,2013-12-02 14:49:00,
2013-12-02 06:54:00,37.7,36.1,30.22,NW,325,0.0,0.0,94,0.00,,,0.00,WUHU216DAVISVP2,2013-12-02 14:54:00,
2013-12-02 06:59:00,37.6,36.0,30.22,NW,325,0.0,0.0,94,0.00,,,0.00,WUHU216DAVISVP2,2013-12-02 14:59:00,
2013-12-02 07:04:00,37.5,35.9,30.22,NW,325,0.0,0.0,94,0.00,,,0.00,WUHU216DAVISVP2,2013-12-02 15:04:00,
2013-12-02 07:09:00,37.4,35.8,30.22,NW,325,0.0,1.0,94,0.00,,,0.00,WUHU216DAVISVP2,2013-12-02 15:09:00,
2013-12-02 07:14:00,37.3,35.7,30.22,NW,325,0.0,1.0,94,0.00,,,0.00,WUHU216DAVISVP2,2013-12-02 15:14:00,
2013-12-02 07:19:00,37.3,35.7,30.22,NW,325,0.0,1.0,94,0.00,,,0.00,WUHU216DAVISVP2,2013-12-02 15:19:00,
2013-12-02 07:24:00,37.3,35.7,30.22,NW,325,0.0,1.0,94,0.00,,,0.00,WUHU216DAVISVP2,2013-12-02 15:24:00,
2013-12-02 07:29:00,37.3,35.7,30.22,NW,325,0.0,0.0,94,0.00,,,0.00,WUHU216DAVISVP2,2013-12-02 15:29:00,
2013-12-02 07:34:00,37.2,35.6,30.21,NW,325,0.0,0.0,94,0.00,,,0.00,WUHU216DAVISVP2,2013-12-02 15:34:00,
2013-12-02 07:39:00,37.3,35.7,30.21,NW,325,0.0,2.0,94,0.00,,,0.00,WUHU216DAVISVP2,2013-12-02 15:39:00,
2013-12-02 07:44:00,37.3,35.7,30.20,NW,325,0.0,2.0,94,0.00,,,0.00,WUHU216DAVISVP2,2013-12-02 15:44:00,
2013-12-02 07:49:00,37.5,35.9,30.20,NW,325,0.0,0.0,94,0.00,,,0.00,WUHU216DAVISVP2,2013-12-02 15:49:00,
2013-12-02 07:54:00,37.9,36.6,30.20,NW,325,0.0,2.0,95,0.00,,,0.00,WUHU216DAVISVP2,2013-12-02 15:54:00,
2013-12-02 07:59:00,38.6,37.2,30.19,NW,326,0.0,3.0,95,0.00,,,0.00,WUHU216DAVISVP2,2013-12-02 15:59:00,
2013-12-02 08:04:00,39.1,37.7,30.19,NW,326,0.0,3.0,95,0.00,,,0.00,WUHU216DAVISVP2,2013-12-02 16:04:00,
2013-12-02 08:09:00,40.0,38.9,30.19,NW,326,1.0,2.0,96,0.00,,,0.00,WUHU216DAVISVP2,2013-12-02 16:09:00,
2013-12-02 08:14:00,40.9,39.8,30.19,ESE,118,0.0,6.0,96,0.00,,,0.00,WUHU216DAVISVP2,2013-12-02 16:14:00,
2013-12-02 08:19:00,41.8,40.7,30.19,ESE,112,0.0,6.0,96,0.00,,,0.00,WUHU216DAVISVP2,2013-12-02 16:19:00,
2013-12-02 08:24:00,42.3,41.2,30.19,ESE,112,0.0,5.0,96,0.00,,,0.00,WUHU216DAVISVP2,2013-12-02 16:24:00,
2013-12-02 08:29:00,42.8,41.7,30.19,ESE,112,0.0,0.0,96,0.00,,,0.00,WUHU216DAVISVP2,2013-12-02 16:29:00,
2013-12-02 08:34:00,43.5,42.4,30.19,ESE,112,2.0,4.0,96,0.00,,,0.00,WUHU216DAVISVP2,2013-12-02 16:34:00,
2013-12-02 08:39:00,44.0,42.9,30.19,ESE,112,0.0,4.0,96,0.00,,,0.00,WUHU216DAVISVP2,2013-12-02 16:39:00,
2013-12-02 08:44:00,44.6,43.5,30.19,ESE,112,0.0,1.0,96,0.00,,,0.00,WUHU216DAVISVP2,2013-12-02 16:44:00,
2013-12-02 08:49:00,45.2,44.1,30.19,ESE,112,0.0,2.0,96,0.00,,,0.00,WUHU216DAVISVP2,2013-12-02 16:49:00,
2013-12-02 08:54:00,45.6,44.5,30.19,ESE,112,0.0,4.0,96,0.00,,,0.00,WUHU216DAVISVP2,2013-12-02 16:54:00,
2013-12-02 08:59:00,46.1,45.0,30.19,ESE,112,0.0,4.0,96,0.00,,,0.00,WUHU216DAVISVP2,2013-12-02 16:59:00,
2013-12-02 09:04:00,46.4,45.3,30.19,ESE,112,0.0,2.0,96,0.00,,,0.00,WUHU216DAVISVP2,2013-12-02 17:04:00,
2013-12-02 09:09:00,46.9,45.8,30.19,ESE,112,0.0,4.0,96,0.00,,,0.00,WUHU216DAVISVP2,2013-12-02 17:09:00,
2013-12-02 09:14:00,47.3,46.2,30.18,ESE,112,2.0,4.0,96,0.00,,,0.00,WUHU216DAVISVP2,2013-12-02 17:14:00,
2013-12-02 09:19:00,47.8,46.7,30.19,ESE,112,2.0,4.0,96,0.00,,,0.00,WUHU216DAVISVP2,2013-12-02 17:19:00,
2013-12-02 09:24:00,48.2,47.1,30.19,ESE,112,0.0,4.0,96,0.00,,,0.00,WUHU216DAVISVP2,2013-12-02 17:24:00,
2013-12-02 09:29:00,48.7,47.6,30.19,ESE,112,0.0,2.0,96,0.00,,,0.00,WUHU216DAVISVP2,2013-12-02 17:29:00,
2013-12-02 09:34:00,49.3,47.6,30.18,ESE,112,0.0,1.0,94,0.00,,,0.00,WUHU216DAVISVP2,2013-12-02 17:34:00,
2013-12-02 09:39:00,50.0,47.7,30.18,ESE,112,0.0,1.0,92,0.00,,,0.00,WUHU216DAVISVP2,2013-12-02 17:39:00,
2013-12-02 09:44:00,51.2,47.1,30.17,ESE,112,4.0,4.0,86,0.00,,,0.00,WUHU216DAVISVP2,2013-12-02 17:44:00,
2013-12-02 09:49:00,52.4,46.8,30.17,ESE,113,2.0,5.0,81,0.00,,,0.00,WUHU216DAVISVP2,2013-12-02 17:49:00,
2013-12-02 09:54:00,52.9,46.3,30.17,ESE,113,0.0,5.0,78,0.00,,,0.00,WUHU216DAVISVP2,2013-12-02 17:54:00,
2013-12-02 09:59:00,53.3,46.7,30.17,ESE,114,4.0,5.0,78,0.00,,,0.00,WUHU216DAVISVP2,2013-12-02 17:59:00,
2013-12-02 10:04:00,54.0,46.7,30.16,ESE,114,0.0,5.0,76,0.00,,,0.00,WUHU216DAVISVP2,2013-12-02 18:04:00,
2013-12-02 10:09:00,54.6,47.3,30.16,ESE,114,2.0,5.0,76,0.00,,,0.00,WUHU216DAVISVP2,2013-12-02 18:09:00,
2013-12-02 10:14:00,54.6,46.9,30.15,ESE,114,0.0,5.0,75,0.00,,,0.00,WUHU216DAVISVP2,2013-12-02 18:14:00,
2013-12-02 10:19:00,55.7,47.3,30.15,ESE,114,0.0,4.0,73,0.00,,,0.00,WUHU216DAVISVP2,2013-12-02 18:19:00,
2013-12-02 10:24:00,56.1,47.3,30.15,SE,134,5.0,5.0,72,0.00,,,0.00,WUHU216DAVISVP2,2013-12-02 18:24:00,
2013-12-02 10:29:00,56.6,47.4,30.15,SE,136,2.0,6.0,71,0.00,,,0.00,WUHU216DAVISVP2,2013-12-02 18:29:00,
2013-12-02 10:34:00,57.2,48.0,30.15,SE,136,5.0,6.0,71,0.00,,,0.00,WUHU216DAVISVP2,2013-12-02 18:34:00,
2013-12-02 10:39:00,57.3,47.7,30.15,SE,136,0.0,6.0,70,0.00,,,0.00,WUHU216DAVISVP2,2013-12-02 18:39:00,
2013-12-02 10:44:00,58.4,48.0,30.14,ESE,107,2.0,6.0,68,0.00,,,0.00,WUHU216DAVISVP2,2013-12-02 18:44:00,
2013-12-02 10:49:00,58.7,48.3,30.14,SE,138,0.0,7.0,68,0.00,,,0.00,WUHU216DAVISVP2,2013-12-02 18:49:00,
2013-12-02 10:54:00,58.6,48.2,30.14,SSE,159,4.0,7.0,68,0.00,,,0.00,WUHU216DAVISVP2,2013-12-02 18:54:00,
2013-12-02 10:59:00,58.9,48.5,30.14,SSE,159,4.0,6.0,68,0.00,,,0.00,WUHU216DAVISVP2,2013-12-02 18:59:00,
2013-12-02 11:04:00,59.5,49.1,30.14,SSE,161,5.0,7.0,68,0.00,,,0.00,WUHU216DAVISVP2,2013-12-02 19:04:00,
2013-12-02 11:09:00,59.6,48.8,30.14,South,180,4.0,7.0,67,0.00,,,0.00,WUHU216DAVISVP2,2013-12-02 19:09:00,
2013-12-02 11:14:00,59.9,48.7,30.14,SSE,165,4.0,8.0,66,0.00,,,0.00,WUHU216DAVISVP2,2013-12-02 19:14:00,
2013-12-02 11:19:00,60.4,48.7,30.13,South,181,8.0,8.0,65,0.00,,,0.00,WUHU216DAVISVP2,2013-12-02 19:19:00,
2013-12-02 11:24:00,60.6,48.9,30.13,South,184,0.0,8.0,65,0.00,,,0.00,WUHU216DAVISVP2,2013-12-02 19:24:00,
2013-12-02 11:29:00,60.5,48.8,30.13,South,180,5.0,10.0,65,0.00,,,0.00,WUHU216DAVISVP2,2013-12-02 19:29:00,
2013-12-02 11:34:00,60.5,48.8,30.12,South,189,4.0,10.0,65,0.00,,,0.00,WUHU216DAVISVP2,2013-12-02 19:34:00,
2013-12-02 11:39:00,60.9,48.8,30.12,SSE,155,5.0,9.0,64,0.00,,,0.00,WUHU216DAVISVP2,2013-12-02 19:39:00,
2013-12-02 11:44:00,61.3,48.7,30.12,SSE,155,0.0,9.0,63,0.00,,,0.00,WUHU216DAVISVP2,2013-12-02 19:44:00,
2013-12-02 11:49:00,61.5,48.9,30.12,SSE,168,6.0,8.0,63,0.00,,,0.00,WUHU216DAVISVP2,2013-12-02 19:49:00,
2013-12-02 11:54:00,61.6,48.6,30.12,South,180,0.0,8.0,62,0.00,,,0.00,WUHU216DAVISVP2,2013-12-02 19:54:00,
2013-12-02 11:59:00,61.8,48.3,30.11,SSE,150,2.0,8.0,61,0.00,,,0.00,WUHU216DAVISVP2,2013-12-02 19:59:00,
2013-12-02 12:04:00,62.1,48.6,30.11,SSE,155,6.0,7.0,61,0.00,,,0.00,WUHU216DAVISVP2,2013-12-02 20:04:00,
2013-12-02 12:09:00,62.6,49.1,30.11,SSE,162,4.0,9.0,61,0.00,,,0.00,WUHU216DAVISVP2,2013-12-02 20:09:00,
2013-12-02 12:14:00,62.6,48.7,30.11,SSE,148,7.0,9.0,60,0.00,,,0.00,WUHU216DAVISVP2,2013-12-02 20:14:00,
2013-12-02 12:19:00,62.9,48.5,30.10,South,180,4.0,9.0,59,0.00,,,0.00,WUHU216DAVISVP2,2013-12-02 20:19:00,
2013-12-02 12:24:00,62.9,48.9,30.10,South,178,6.0,8.0,60,0.00,,,0.00,WUHU216DAVISVP2,2013-12-02 20:24:00,
2013-12-02 12:29:00,63.3,49.3,30.10,SSE,159,6.0,8.0,60,0.00,,,0.00,WUHU216DAVISVP2,2013-12-02 20:29:00,
2013-12-02 12:34:00,63.2,48.3,30.10,SSE,168,0.0,8.0,58,0.00,,,0.00,WUHU216DAVISVP2,2013-12-02 20:34:00,
2013-12-02 12:39:00,63.3,49.3,30.09,SE,130,6.0,9.0,60,0.00,,,0.00,WUHU216DAVISVP2,2013-12-02 20:39:00,
2013-12-02 12:44:00,63.2,48.8,30.09,SSE,158,0.0,9.0,59,0.00,,,0.00,WUHU216DAVISVP2,2013-12-02 20:44:00,
2013-12-02 12:49:00,63.8,49.3,30.09,SSW,195,3.0,8.0,59,0.00,,,0.00,WUHU216DAVISVP2,2013-12-02 20:49:00,
2013-12-02 12:54:00,64.0,49.1,30.09,SSE,153,5.0,8.0,58,0.00,,,0.00,WUHU216DAVISVP2,2013-12-02 20:54:00,
2013-12-02 12:59:00,63.8,48.9,30.08,SSE,152,1.0,9.0,58,0.00,,,0.00,WUHU216DAVISVP2,2013-12-02 20:59:00,
2013-12-02 13:04:00,64.1,49.2,30.08,ESE,118,5.0,9.0,58,0.00,,,0.00,WUHU216DAVISVP2,2013-12-02 21:04:00,
2013-12-02 13:10:00,64.6,49.6,30.08,SE,138,8.0,8.0,58,0.00,,,0.00,WUHU216DAVISVP2,2013-12-02 21:10:00,
2013-12-02 13:15:00,64.1,48.7,30.07,SSE,150,6.0,8.0,57,0.00,,,0.00,WUHU216DAVISVP2,2013-12-02 21:15:00,
2013-12-02 13:20:00,64.8,48.8,30.07,ESE,118,4.0,8.0,56,0.00,,,0.00,WUHU216DAVISVP2,2013-12-02 21:20:00,
2013-12-02 13:25:00,64.9,48.9,30.07,SE,131,4.0,7.0,56,0.00,,,0.00,WUHU216DAVISVP2,2013-12-02 21:25:00,
2013-12-02 13:30:00,64.9,48.9,30.06,SE,133,4.0,7.0,56,0.00,,,0.00,WUHU216DAVISVP2,2013-12-02 21:30:00,
2013-12-02 13:35:00,65.4,49.4,30.06,East,100,7.0,7.0,56,0.00,,,0.00,WUHU216DAVISVP2,2013-12-02 21:35:00,
2013-12-02 13:40:00,65.8,49.3,30.05,ESE,122,5.0,8.0,55,0.00,,,0.00,WUHU216DAVISVP2,2013-12-02 21:40:00,
2013-12-02 13:45:00,65.9,49.4,30.05,ENE,73,5.0,8.0,55,0.00,,,0.00,WUHU216DAVISVP2,2013-12-02 21:45:00,
2013-12-02 13:50:00,65.6,49.1,30.05,SE,126,7.0,8.0,55,0.00,,,0.00,WUHU216DAVISVP2,2013-12-02 21:50:00,
2013-12-02 13:55:00,65.6,49.1,30.04,SE,134,8.0,9.0,55,0.00,,,0.00,WUHU216DAVISVP2,2013-12-02 21:55:00,
2013-12-02 14:00:00,65.7,49.2,30.04,East,99,4.0,9.0,55,0.00,,,0.00,WUHU216DAVISVP2,2013-12-02 22:00:00,
2013-12-02 14:05:00,65.6,49.6,30.03,ESE,109,9.0,9.0,56,0.00,,,0.00,WUHU216DAVISVP2,2013-12-02 22:05:00,
2013-12-02 14:10:00,65.4,48.9,30.03,SE,136,1.0,9.0,55,0.00,,,0.00,WUHU216DAVISVP2,2013-12-02 22:10:00,
2013-12-02 14:15:00,65.6,49.1,30.03,ESE,104,6.0,8.0,55,0.00,,,0.00,WUHU216DAVISVP2,2013-12-02 22:15:00,
2013-12-02 14:20:00,65.8,48.8,30.03,ESE,119,2.0,8.0,54,0.00,,,0.00,WUHU216DAVISVP2,2013-12-02 22:20:00,
2013-12-02 14:25:00,65.9,48.9,30.03,ESE,111,0.0,8.0,54,0.00,,,0.00,WUHU216DAVISVP2,2013-12-02 22:25:00,
2013-12-02 14:30:00,66.0,49.0,30.02,East,98,0.0,7.0,54,0.00,,,0.00,WUHU216DAVISVP2,2013-12-02 22:30:00,
2013-12-02 14:35:00,65.8,48.8,30.02,East,90,6.0,7.0,54,0.00,,,0.00,WUHU216DAVISVP2,2013-12-02 22:35:00,
2013-12-02 14:40:00,66.1,49.1,30.01,East,93,1.0,7.0,54,0.00,,,0.00,WUHU216DAVISVP2,2013-12-02 22:40:00,
2013-12-02 14:45:00,66.0,48.4,30.01,East,99,0.0,8.0,53,0.00,,,0.00,WUHU216DAVISVP2,2013-12-02 22:45:00,
2013-12-02 14:50:00,66.3,48.7,30.00,East,92,0.0,8.0,53,0.00,,,0.00,WUHU216DAVISVP2,2013-12-02 22:50:00,
2013-12-02 14:55:00,66.3,48.7,30.00,East,96,0.0,8.0,53,0.00,,,0.00,WUHU216DAVISVP2,2013-12-02 22:55:00,
2013-12-02 15:00:00,65.9,48.3,30.00,ESE,105,0.0,8.0,53,0.00,,,0.00,WUHU216DAVISVP2,2013-12-02 23:00:00,
2013-12-02 15:05:00,66.0,48.9,30.00,ENE,78,0.0,5.0,54,0.00,,,0.00,WUHU216DAVISVP2,2013-12-02 23:05:00,
2013-12-02 15:10:00,65.8,48.7,30.00,ENE,75,0.0,5.0,54,0.00,,,0.00,WUHU216DAVISVP2,2013-12-02 23:10:00,
2013-12-02 15:15:00,65.6,48.5,30.00,ENE,71,1.0,5.0,54,0.00,,,0.00,WUHU216DAVISVP2,2013-12-02 23:15:00,
2013-12-02 15:20:00,65.5,48.4,30.00,East,86,0.0,5.0,54,0.00,,,0.00,WUHU216DAVISVP2,2013-12-02 23:20:00,
2013-12-02 15:25:00,65.4,48.3,30.00,ENE,71,1.0,4.0,54,0.00,,,0.00,WUHU216DAVISVP2,2013-12-02 23:25:00,
2013-12-02 15:30:00,65.2,48.6,30.00,ENE,71,0.0,4.0,55,0.00,,,0.00,WUHU216DAVISVP2,2013-12-02 23:30:00,
2013-12-02 15:35:00,65.1,48.5,30.00,ENE,73,0.0,5.0,55,0.00,,,0.00,WUHU216DAVISVP2,2013-12-02 23:35:00,
2013-12-02 15:40:00,64.9,48.3,30.00,ENE,73,0.0,5.0,55,0.00,,,0.00,WUHU216DAVISVP2,2013-12-02 23:40:00,
2013-12-02 15:45:00,64.7,48.2,30.00,ENE,73,0.0,0.0,55,0.00,,,0.00,WUHU216DAVISVP2,2013-12-02 23:45:00,
2013-12-02 15:50:00,64.5,47.5,30.00,ENE,73,0.0,0.0,54,0.00,,,0.00,WUHU216DAVISVP2,2013-12-02 23:50:00,
2013-12-02 15:55:00,64.3,47.8,29.99,ENE,73,0.0,0.0,55,0.00,,,0.00,WUHU216DAVISVP2,2013-12-02 23:55:00,
2013-12-02 16:00:00,63.8,48.3,29.99,ENE,73,0.0,0.0,57,0.00,,,0.00,WUHU216DAVISVP2,2013-12-03 00:00:00,
2013-12-02 16:05:00,63.4,48.4,29.99,ENE,73,0.0,0.0,58,0.00,,,0.00,WUHU216DAVISVP2,2013-12-03 00:05:00,
2013-12-02 16:10:00,63.1,48.5,29.98,ENE,73,0.0,0.0,59,0.00,,,0.00,WUHU216DAVISVP2,2013-12-03 00:10:00,
2013-12-02 16:15:00,62.7,48.2,29.98,ENE,73,0.0,0.0,59,0.00,,,0.00,WUHU216DAVISVP2,2013-12-03 00:15:00,
2013-12-02 16:20:00,62.4,48.3,29.98,ENE,73,0.0,0.0,60,0.00,,,0.00,WUHU216DAVISVP2,2013-12-03 00:20:00,
2013-12-02 16:25:00,62.1,48.0,29.98,ENE,73,0.0,0.0,60,0.00,,,0.00,WUHU216DAVISVP2,2013-12-03 00:25:00,
2013-12-02 16:30:00,61.9,47.9,29.97,ENE,73,0.0,0.0,60,0.00,,,0.00,WUHU216DAVISVP2,2013-12-03 00:30:00,
2013-12-02 16:35:00,61.5,47.9,29.97,ENE,73,0.0,0.0,61,0.00,,,0.00,WUHU216DAVISVP2,2013-12-03 00:35:00,
2013-12-02 16:40:00,61.0,47.4,29.97,ENE,73,0.0,0.0,61,0.00,,,0.00,WUHU216DAVISVP2,2013-12-03 00:40:00,
2013-12-02 16:45:00,60.4,47.3,29.97,ENE,73,0.0,0.0,62,0.00,,,0.00,WUHU216DAVISVP2,2013-12-03 00:45:00,
2013-12-02 16:50:00,59.8,47.2,29.97,ENE,73,0.0,0.0,63,0.00,,,0.00,WUHU216DAVISVP2,2013-12-03 00:50:00,
2013-12-02 16:55:00,59.2,47.4,29.97,ENE,73,0.0,0.0,65,0.00,,,0.00,WUHU216DAVISVP2,2013-12-03 00:55:00,
2013-12-02 17:00:00,58.6,47.3,29.96,ENE,73,0.0,0.0,66,0.00,,,0.00,WUHU216DAVISVP2,2013-12-03 01:00:00,
2013-12-02 17:05:00,58.1,47.2,29.96,ENE,73,0.0,0.0,67,0.00,,,0.00,WUHU216DAVISVP2,2013-12-03 01:05:00,
2013-12-02 17:10:00,57.6,47.2,29.96,ENE,73,0.0,0.0,68,0.00,,,0.00,WUHU216DAVISVP2,2013-12-03 01:10:00,
2013-12-02 17:15:00,56.9,47.0,29.96,ENE,73,0.0,0.0,69,0.00,,,0.00,WUHU216DAVISVP2,2013-12-03 01:15:00,
2013-12-02 17:20:00,56.2,46.3,29.96,ENE,73,0.0,0.0,69,0.00,,,0.00,WUHU216DAVISVP2,2013-12-03 01:20:00,
2013-12-02 17:25:00,55.7,46.2,29.96,ENE,73,0.0,0.0,70,0.00,,,0.00,WUHU216DAVISVP2,2013-12-03 01:25:00,
2013-12-02 17:30:00,55.4,46.2,29.96,ENE,73,0.0,0.0,71,0.00,,,0.00,WUHU216DAVISVP2,2013-12-03 01:30:00,
2013-12-02 17:35:00,55.1,46.0,29.96,ENE,73,0.0,0.0,71,0.00,,,0.00,WUHU216DAVISVP2,2013-12-03 01:35:00,
2013-12-02 17:40:00,54.8,45.9,29.96,ENE,73,0.0,0.0,72,0.00,,,0.00,WUHU216DAVISVP2,2013-12-03 01:40:00,
2013-12-02 17:45:00,54.5,45.8,29.96,ENE,73,0.0,0.0,72,0.00,,,0.00,WUHU216DAVISVP2,2013-12-03 01:45:00,
2013-12-02 17:50:00,54.3,45.9,29.96,ENE,73,0.0,0.0,73,0.00,,,0.00,WUHU216DAVISVP2,2013-12-03 01:50:00,
2013-12-02 17:55:00,54.1,45.6,29.96,ENE,73,0.0,1.0,73,0.00,,,0.00,WUHU216DAVISVP2,2013-12-03 01:55:00,
2013-12-02 18:00:00,53.8,45.8,29.96,ENE,73,0.0,1.0,74,0.00,,,0.00,WUHU216DAVISVP2,2013-12-03 02:00:00,
2013-12-02 18:05:00,53.7,45.7,29.96,ENE,73,0.0,0.0,74,0.00,,,0.00,WUHU216DAVISVP2,2013-12-03 02:05:00,
2013-12-02 18:10:00,53.6,46.0,29.96,ENE,73,0.0,0.0,75,0.00,,,0.00,WUHU216DAVISVP2,2013-12-03 02:10:00,
2013-12-02 18:15:00,53.4,45.8,29.96,ENE,73,0.0,0.0,75,0.00,,,0.00,WUHU216DAVISVP2,2013-12-03 02:15:00,
2013-12-02 18:20:00,52.9,45.3,29.95,ENE,73,0.0,0.0,75,0.00,,,0.00,WUHU216DAVISVP2,2013-12-03 02:20:00,
2013-12-02 18:25:00,52.5,45.6,29.95,ENE,73,0.0,0.0,77,0.00,,,0.00,WUHU216DAVISVP2,2013-12-03 02:25:00,
2013-12-02 18:30:00,52.2,45.3,29.95,ENE,73,0.0,0.0,77,0.00,,,0.00,WUHU216DAVISVP2,2013-12-03 02:30:00,
2013-12-02 18:35:00,52.0,45.1,29.95,ENE,73,0.0,0.0,77,0.00,,,0.00,WUHU216DAVISVP2,2013-12-03 02:35:00,
2013-12-02 18:40:00,51.9,45.3,29.95,ENE,73,0.0,2.0,78,0.00,,,0.00,WUHU216DAVISVP2,2013-12-03 02:40:00,
2013-12-02 18:45:00,51.6,45.0,29.95,ENE,73,0.0,2.0,78,0.00,,,0.00,WUHU216DAVISVP2,2013-12-03 02:45:00,
2013-12-02 18:50:00,51.2,45.0,29.95,ENE,73,0.0,0.0,79,0.00,,,0.00,WUHU216DAVISVP2,2013-12-03 02:50:00,
2013-12-02 18:55:00,51.0,45.1,29.94,ENE,73,0.0,0.0,80,0.00,,,0.00,WUHU216DAVISVP2,2013-12-03 02:55:00,
2013-12-02 19:00:00,50.8,45.2,29.94,ENE,73,0.0,0.0,81,0.00,,,0.00,WUHU216DAVISVP2,2013-12-03 03:00:00,
2013-12-02 19:05:00,50.3,44.4,29.94,ENE,73,0.0,0.0,80,0.00,,,0.00,WUHU216DAVISVP2,2013-12-03 03:05:00,
2013-12-02 19:10:00,49.8,43.9,29.94,ENE,73,0.0,0.0,80,0.00,,,0.00,WUHU216DAVISVP2,2013-12-03 03:10:00,
2013-12-02 19:15:00,49.4,43.5,29.95,ENE,73,0.0,0.0,80,0.00,,,0.00,WUHU216DAVISVP2,2013-12-03 03:15:00,
2013-12-02 19:20:00,49.4,44.2,29.95,ENE,73,0.0,3.0,82,0.00,,,0.00,WUHU216DAVISVP2,2013-12-03 03:20:00,
2013-12-02 19:25:00,49.7,44.4,29.95,ENE,73,0.0,3.0,82,0.00,,,0.00,WUHU216DAVISVP2,2013-12-03 03:25:00,
2013-12-02 19:30:00,49.9,44.6,29.95,ENE,73,0.0,2.0,82,0.00,,,0.00,WUHU216DAVISVP2,2013-12-03 03:30:00,
2013-12-02 19:35:00,49.9,44.6,29.94,ENE,73,0.0,0.0,82,0.00,,,0.00,WUHU216DAVISVP2,2013-12-03 03:35:00,
2013-12-02 19:40:00,49.6,44.3,29.94,ENE,73,0.0,0.0,82,0.00,,,0.00,WUHU216DAVISVP2,2013-12-03 03:40:00,
2013-12-02 19:45:00,49.2,43.9,29.94,ENE,73,0.0,0.0,82,0.00,,,0.00,WUHU216DAVISVP2,2013-12-03 03:45:00,
2013-12-02 19:50:00,48.9,44.0,29.94,ENE,73,0.0,0.0,83,0.00,,,0.00,WUHU216DAVISVP2,2013-12-03 03:50:00,
2013-12-02 19:55:00,48.7,44.1,29.95,ENE,73,0.0,0.0,84,0.00,,,0.00,WUHU216DAVISVP2,2013-12-03 03:55:00,
2013-12-02 20:00:00,48.6,44.0,29.95,ENE,73,0.0,0.0,84,0.00,,,0.00,WUHU216DAVISVP2,2013-12-03 04:00:00,
2013-12-02 20:05:00,48.4,43.8,29.95,ENE,73,0.0,0.0,84,0.00,,,0.00,WUHU216DAVISVP2,2013-12-03 04:05:00,
2013-12-02 20:10:00,48.3,43.7,29.95,ENE,73,0.0,0.0,84,0.00,,,0.00,WUHU216DAVISVP2,2013-12-03 04:10:00,
2013-12-02 20:15:00,47.9,43.0,29.95,ENE,73,0.0,0.0,83,0.00,,,0.00,WUHU216DAVISVP2,2013-12-03 04:15:00,
2013-12-02 20:20:00,47.7,43.1,29.95,ENE,73,0.0,0.0,84,0.00,,,0.00,WUHU216DAVISVP2,2013-12-03 04:20:00,
2013-12-02 20:25:00,47.3,42.7,29.95,ENE,73,0.0,0.0,84,0.00,,,0.00,WUHU216DAVISVP2,2013-12-03 04:25:00,
2013-12-02 20:30:00,46.9,42.6,29.95,ENE,73,0.0,0.0,85,0.00,,,0.00,WUHU216DAVISVP2,2013-12-03 04:30:00,
2013-12-02 20:35:00,46.7,42.4,29.95,ENE,73,0.0,0.0,85,0.00,,,0.00,WUHU216DAVISVP2,2013-12-03 04:35:00,
2013-12-02 20:40:00,46.4,42.1,29.95,ENE,73,0.0,0.0,85,0.00,,,0.00,WUHU216DAVISVP2,2013-12-03 04:40:00,
2013-12-02 20:45:00,46.2,42.2,29.95,ENE,73,0.0,1.0,86,0.00,,,0.00,WUHU216DAVISVP2,2013-12-03 04:45:00,
2013-12-02 20:50:00,46.2,42.2,29.95,ENE,73,0.0,1.0,86,0.00,,,0.00,WUHU216DAVISVP2,2013-12-03 04:50:00,
2013-12-02 20:55:00,46.1,42.1,29.95,ENE,73,0.0,0.0,86,0.00,,,0.00,WUHU216DAVISVP2,2013-12-03 04:55:00,
2013-12-02 21:00:00,45.9,42.2,29.95,ENE,73,0.0,0.0,87,0.00,,,0.00,WUHU216DAVISVP2,2013-12-03 05:00:00,
2013-12-02 21:05:00,45.6,41.6,29.95,ENE,73,0.0,0.0,86,0.00,,,0.00,WUHU216DAVISVP2,2013-12-03 05:05:00,
2013-12-02 21:10:00,45.3,41.4,29.95,ENE,73,0.0,0.0,86,0.00,,,0.00,WUHU216DAVISVP2,2013-12-03 05:10:00,
2013-12-02 21:15:00,45.3,41.7,29.95,ENE,73,0.0,0.0,87,0.00,,,0.00,WUHU216DAVISVP2,2013-12-03 05:15:00,
2013-12-02 21:20:00,45.4,41.8,29.95,ENE,73,0.0,0.0,87,0.00,,,0.00,WUHU216DAVISVP2,2013-12-03 05:20:00,
2013-12-02 21:25:00,45.5,41.8,29.95,ENE,73,0.0,0.0,87,0.00,,,0.00,WUHU216DAVISVP2,2013-12-03 05:25:00,
2013-12-02 21:30:00,45.2,41.5,29.95,ENE,73,0.0,0.0,87,0.00,,,0.00,WUHU216DAVISVP2,2013-12-03 05:30:00,
2013-12-02 21:35:00,44.9,41.2,29.95,ENE,73,0.0,0.0,87,0.00,,,0.00,WUHU216DAVISVP2,2013-12-03 05:35:00,
2013-12-02 21:40:00,44.4,40.8,29.95,ENE,73,0.0,0.0,87,0.00,,,0.00,WUHU216DAVISVP2,2013-12-03 05:40:00,
2013-12-02 21:45:00,44.2,40.9,29.95,ENE,73,0.0,0.0,88,0.00,,,0.00,WUHU216DAVISVP2,2013-12-03 05:45:00,
2013-12-02 21:50:00,44.2,41.2,29.95,ENE,73,0.0,0.0,89,0.00,,,0.00,WUHU216DAVISVP2,2013-12-03 05:50:00,
2013-12-02 21:55:00,44.1,41.0,29.95,ENE,73,0.0,0.0,89,0.00,,,0.00,WUHU216DAVISVP2,2013-12-03 05:55:00,
2013-12-02 22:00:00,44.1,41.3,29.95,ENE,73,0.0,0.0,90,0.00,,,0.00,WUHU216DAVISVP2,2013-12-03 06:00:00,
2013-12-02 22:05:00,43.7,40.6,29.95,ENE,73,0.0,2.0,89,0.00,,,0.00,WUHU216DAVISVP2,2013-12-03 06:05:00,
2013-12-02 22:10:00,43.3,40.0,29.95,ENE,73,2.0,3.0,88,0.00,,,0.00,WUHU216DAVISVP2,2013-12-03 06:10:00,
2013-12-02 22:15:00,43.3,40.2,29.95,ENE,73,1.0,3.0,89,0.00,,,0.00,WUHU216DAVISVP2,2013-12-03 06:15:00,
2013-12-02 22:20:00,43.3,40.5,29.95,ENE,73,0.0,3.0,90,0.00,,,0.00,WUHU216DAVISVP2,2013-12-03 06:20:00,
2013-12-02 22:25:00,43.4,40.6,29.95,ENE,73,0.0,3.0,90,0.00,,,0.00,WUHU216DAVISVP2,2013-12-03 06:25:00,
2013-12-02 22:30:00,43.6,40.9,29.96,ENE,73,0.0,3.0,90,0.00,,,0.00,WUHU216DAVISVP2,2013-12-03 06:30:00,
2013-12-02 22:35:00,43.4,40.7,29.96,ENE,73,0.0,3.0,90,0.00,,,0.00,WUHU216DAVISVP2,2013-12-03 06:35:00,
2013-12-02 22:40:00,42.9,39.8,29.96,ENE,73,0.0,1.0,89,0.00,,,0.00,WUHU216DAVISVP2,2013-12-03 06:40:00,
2013-12-02 22:45:00,42.9,40.1,29.96,ENE,73,0.0,2.0,90,0.00,,,0.00,WUHU216DAVISVP2,2013-12-03 06:45:00,
2013-12-02 22:50:00,42.7,39.6,29.97,ENE,73,2.0,3.0,89,0.00,,,0.00,WUHU216DAVISVP2,2013-12-03 06:50:00,
2013-12-02 22:55:00,42.9,40.2,29.97,NNE,26,2.0,4.0,90,0.00,,,0.00,WUHU216DAVISVP2,2013-12-03 06:55:00,
2013-12-02 23:00:00,43.1,40.4,29.97,NNE,26,0.0,4.0,90,0.00,,,0.00,WUHU216DAVISVP2,2013-12-03 07:00:00,
2013-12-02 23:05:00,43.2,40.5,29.97,NNE,26,0.0,0.0,90,0.00,,,0.00,WUHU216DAVISVP2,2013-12-03 07:05:00,
2013-12-02 23:10:00,43.4,40.6,29.97,NNE,26,0.0,2.0,90,0.00,,,0.00,WUHU216DAVISVP2,2013-12-03 07:10:00,
2013-12-02 23:20:00,43.8,41.0,29.97,NNE,26,1.0,3.0,90,0.00,,,0.00,WUHU216DAVISVP2,2013-12-03 07:20:00,
2013-12-02 23:25:00,43.8,41.0,29.96,NNE,26,0.0,2.0,90,0.00,,,0.00,WUHU216DAVISVP2,2013-12-03 07:25:00,
2013-12-02 23:30:00,43.9,41.1,29.96,NNE,26,0.0,2.0,90,0.00,,,0.00,WUHU216DAVISVP2,2013-12-03 07:30:00,
2013-12-02 23:35:00,44.0,41.2,29.97,NNE,26,0.0,0.0,90,0.00,,,0.00,WUHU216DAVISVP2,2013-12-03 07:35:00,
2013-12-02 23:40:00,44.0,41.2,29.97,NNE,26,0.0,0.0,90,0.00,,,0.00,WUHU216DAVISVP2,2013-12-03 07:40:00,
2013-12-02 23:45:00,43.9,41.1,29.96,NNE,26,0.0,0.0,90,0.00,,,0.00,WUHU216DAVISVP2,2013-12-03 07:45:00,
2013-12-02 23:50:00,43.8,41.0,29.96,NNE,26,0.0,0.0,90,0.00,,,0.00,WUHU216DAVISVP2,2013-12-03 07:50:00,
2013-12-02 23:55:00,43.6,40.8,29.96,NNE,26,0.0,0.0,90,0.00,,,0.00,WUHU216DAVISVP2,2013-12-03 07:55:00,